createdAt,value
2022-10-23T00:01:18.082Z,101243.13
2022-10-23T00:03:45.614Z,101242.56
2022-10-23T00:06:12.824Z,101239.03
2022-10-23T00:08:40.154Z,101242.34
2022-10-23T00:11:10.861Z,101236.16
2022-10-23T00:13:38.079Z,101240.50
2022-10-23T00:16:04.951Z,101231.63
2022-10-23T00:18:31.577Z,101226.28
2022-10-23T00:20:57.971Z,101237.44
2022-10-23T00:23:24.730Z,101222.13
2022-10-23T00:25:51.221Z,101234.13
2022-10-23T00:28:17.915Z,101224.22
2022-10-23T00:30:44.359Z,101227.13
2022-10-23T00:33:10.803Z,101239.28
2022-10-23T00:35:41.362Z,101233.09
2022-10-23T00:38:08.887Z,101236.41
2022-10-23T00:40:36.125Z,101220.50
2022-10-23T00:43:02.810Z,101220.31
2022-10-23T00:45:33.394Z,101187.66
2022-10-23T00:48:01.308Z,101214.94
2022-10-23T00:50:30.669Z,101213.88
2022-10-23T00:53:00.893Z,101216.78
2022-10-23T00:55:28.577Z,101212.88
2022-10-23T00:57:56.010Z,101214.72
2022-10-23T01:00:28.633Z,101189.13
2022-10-23T01:02:58.203Z,101202.94
2022-10-23T01:05:31.715Z,101204.59
2022-10-23T01:08:05.769Z,101196.75
2022-10-23T01:10:39.896Z,101209.72
2022-10-23T01:13:12.876Z,101197.72
2022-10-23T01:15:50.712Z,101199.97
2022-10-23T01:18:27.670Z,101199.34
2022-10-23T01:21:08.253Z,101193.38
2022-10-23T01:24:05.995Z,101191.06
2022-10-23T01:26:54.882Z,101187.34
2022-10-23T01:29:27.573Z,101189.38
2022-10-23T01:32:23.461Z,101189.59
2022-10-23T01:35:09.286Z,101194.53
2022-10-23T01:37:43.335Z,101182.38
2022-10-23T01:40:21.941Z,101186.91
2022-10-23T01:42:54.622Z,101174.06
2022-10-23T01:45:26.922Z,101178.63
2022-10-23T01:47:55.738Z,101166.63
2022-10-23T01:50:24.678Z,101168.91
2022-10-23T01:52:51.215Z,101161.91
2022-10-23T01:55:18.100Z,101155.09
2022-10-23T01:57:45.913Z,101159.44
2022-10-23T02:00:16.715Z,101160.28
2022-10-23T02:02:44.815Z,101163.75
2022-10-23T02:05:18.725Z,101148.72
2022-10-23T02:07:45.793Z,101153.25
2022-10-23T02:10:13.904Z,101153.88
2022-10-23T02:12:42.999Z,101152.84
2022-10-23T02:15:29.813Z,101152.00
2022-10-23T02:18:33.426Z,101150.97
2022-10-23T02:21:10.818Z,101148.88
2022-10-23T02:23:56.167Z,101140.84
2022-10-23T02:26:28.866Z,101144.34
2022-10-23T02:31:35.612Z,101121.38
2022-10-23T02:34:02.080Z,101126.78
2022-10-23T02:36:28.946Z,101127.59
2022-10-23T02:38:55.429Z,101123.22
2022-10-23T02:41:59.451Z,101126.97
2022-10-23T02:44:32.472Z,101101.34
2022-10-23T02:47:14.136Z,101110.47
2022-10-23T02:50:14.876Z,101111.69
2022-10-23T02:53:23.246Z,101119.50
2022-10-23T02:56:02.164Z,101107.16
2022-10-23T02:58:54.817Z,101107.16
2022-10-23T03:01:26.737Z,101086.66
2022-10-23T03:03:59.232Z,101096.84
2022-10-23T03:06:26.021Z,101084.03
2022-10-23T03:09:02.261Z,101084.69
2022-10-23T03:11:28.805Z,101080.91
2022-10-23T03:13:55.254Z,101090.44
2022-10-23T03:16:21.649Z,101086.28
2022-10-23T03:18:47.980Z,101083.59
2022-10-23T03:21:14.345Z,101055.91
2022-10-23T03:23:40.743Z,101074.97
2022-10-23T03:26:07.503Z,101063.63
2022-10-23T03:28:35.440Z,101056.22
2022-10-23T03:31:02.374Z,101068.38
2022-10-23T03:33:29.902Z,101069.41
2022-10-23T03:35:56.351Z,101055.59
2022-10-23T03:38:22.918Z,101050.03
2022-10-23T03:40:49.342Z,101051.69
2022-10-23T03:43:15.783Z,101044.69
2022-10-23T03:45:42.150Z,101042.22
2022-10-23T03:48:08.636Z,101035.38
2022-10-23T03:50:35.841Z,101031.25
2022-10-23T03:53:02.282Z,101037.06
2022-10-23T03:55:29.295Z,101022.63
2022-10-23T03:57:55.664Z,101016.84
2022-10-23T04:00:22.566Z,101010.84
2022-10-23T04:02:49.045Z,101016.59
2022-10-23T04:05:15.606Z,101001.16
2022-10-23T04:07:41.981Z,100998.69
2022-10-23T04:10:08.893Z,100994.31
2022-10-23T04:12:35.380Z,100996.81
2022-10-23T04:15:01.780Z,101000.72
2022-10-23T04:19:59.630Z,100991.03
2022-10-23T04:22:28.347Z,100976.78
2022-10-23T04:24:55.618Z,100975.81
2022-10-23T04:27:22.203Z,100980.59
2022-10-23T04:29:49.241Z,100976.63
2022-10-23T04:32:15.882Z,100981.59
2022-10-23T04:34:43.273Z,100977.91
2022-10-23T04:37:09.764Z,100983.88
2022-10-23T04:39:36.100Z,100980.19
2022-10-23T04:42:02.479Z,100977.31
2022-10-23T04:44:28.954Z,100985.97
2022-10-23T04:46:55.333Z,100977.09
2022-10-23T04:49:21.737Z,100976.06
2022-10-23T04:51:48.225Z,100978.75
2022-10-23T04:54:14.645Z,100968.25
2022-10-23T04:56:41.049Z,100965.56
2022-10-23T04:59:07.512Z,100968.25
2022-10-23T05:01:34.091Z,100965.38
2022-10-23T05:04:00.544Z,100963.53
2022-10-23T05:06:27.078Z,100967.84
2022-10-23T05:08:53.470Z,100968.03
2022-10-23T05:11:20.003Z,100960.63
2022-10-23T05:13:46.434Z,100974.88
2022-10-23T05:16:27.586Z,100964.56
2022-10-23T05:18:54.289Z,100960.00
2022-10-23T05:21:26.417Z,100957.34
2022-10-23T05:23:54.063Z,100949.72
2022-10-23T05:26:22.368Z,100951.19
2022-10-23T05:28:49.155Z,100948.31
2022-10-23T05:31:17.815Z,100946.44
2022-10-23T05:33:44.325Z,100948.94
2022-10-23T05:36:12.526Z,100947.50
2022-10-23T05:38:39.254Z,100942.16
2022-10-23T05:41:05.831Z,100922.59
2022-10-23T05:43:32.330Z,100929.19
2022-10-23T05:45:58.878Z,100937.66
2022-10-23T05:48:36.330Z,100946.53
2022-10-23T05:51:07.616Z,100944.28
2022-10-23T05:53:36.222Z,100940.34
2022-10-23T05:56:07.380Z,100941.81
2022-10-23T05:58:34.305Z,100920.56
2022-10-23T06:01:05.258Z,100915.41
2022-10-23T06:03:31.775Z,100923.50
2022-10-23T06:05:58.127Z,100924.13
2022-10-23T06:08:24.662Z,100918.59
2022-10-23T06:10:51.062Z,100903.94
2022-10-23T06:13:17.739Z,100918.41
2022-10-23T06:15:44.331Z,100924.56
2022-10-23T06:18:10.744Z,100923.13
2022-10-23T06:20:39.018Z,100908.53
2022-10-23T06:23:06.713Z,100913.28
2022-10-23T06:25:33.447Z,100904.81
2022-10-23T06:27:59.807Z,100900.31
2022-10-23T06:30:26.248Z,100892.06
2022-10-23T06:32:53.866Z,100887.13
2022-10-23T06:35:20.305Z,100879.72
2022-10-23T06:37:46.733Z,100866.91
2022-10-23T06:40:13.152Z,100879.94
2022-10-23T06:42:39.637Z,100881.16
2022-10-23T06:45:07.342Z,100869.44
2022-10-23T06:47:33.934Z,100871.91
2022-10-23T06:50:00.402Z,100876.84
2022-10-23T06:52:45.878Z,100880.34
2022-10-23T06:55:12.759Z,100880.16
2022-10-23T06:57:39.122Z,100871.28
2022-10-23T07:00:06.138Z,100865.28
2022-10-23T07:02:32.507Z,100884.47
2022-10-23T07:04:58.990Z,100882.41
2022-10-23T07:07:25.331Z,100867.38
2022-10-23T07:09:51.807Z,100863.03
2022-10-23T07:12:18.238Z,100859.97
2022-10-23T07:14:44.664Z,100848.41
2022-10-23T07:17:11.172Z,100853.56
2022-10-23T07:19:37.521Z,100859.75
2022-10-23T07:22:04.001Z,100855.41
2022-10-23T07:24:31.862Z,100858.91
2022-10-23T07:26:58.275Z,100869.22
2022-10-23T07:29:24.868Z,100860.56
2022-10-23T07:31:51.217Z,100856.88
2022-10-23T07:34:17.690Z,100836.66
2022-10-23T07:36:44.090Z,100838.09
2022-10-23T07:39:10.593Z,100845.94
2022-10-23T07:41:37.198Z,100850.88
2022-10-23T07:44:04.312Z,100850.66
2022-10-23T07:46:30.732Z,100850.66
2022-10-23T07:48:57.119Z,100846.97
2022-10-23T07:51:23.602Z,100840.56
2022-10-23T07:53:49.983Z,100836.66
2022-10-23T07:56:28.065Z,100836.88
2022-10-23T07:58:54.451Z,100824.88
2022-10-23T08:01:29.209Z,100787.59
2022-10-23T08:03:55.682Z,100825.28
2022-10-23T08:06:22.140Z,100821.56
2022-10-23T08:08:48.791Z,100823.66
2022-10-23T08:11:17.520Z,100822.41
2022-10-23T08:13:44.291Z,100826.56
2022-10-23T08:16:10.773Z,100820.97
2022-10-23T08:18:37.117Z,100807.78
2022-10-23T08:21:04.267Z,100816.81
2022-10-23T08:23:30.945Z,100811.06
2022-10-23T08:26:00.162Z,100816.41
2022-10-23T08:28:27.616Z,100798.84
2022-10-23T08:30:54.824Z,100811.84
2022-10-23T08:33:21.766Z,100816.38
2022-10-23T08:35:48.331Z,100806.06
2022-10-23T08:38:14.892Z,100789.34
2022-10-23T08:40:48.412Z,100799.81
2022-10-23T08:43:37.436Z,100790.75
2022-10-23T08:46:12.973Z,100786.59
2022-10-23T08:48:45.952Z,100781.84
2022-10-23T08:51:29.116Z,100781.19
2022-10-23T08:54:04.253Z,100770.06
2022-10-23T08:56:35.144Z,100758.91
2022-10-23T08:59:19.988Z,100754.34
2022-10-23T09:02:00.444Z,100756.38
2022-10-23T09:04:27.398Z,100750.81
2022-10-23T09:06:59.907Z,100752.03
2022-10-23T09:09:41.855Z,100751.81
2022-10-23T09:12:16.671Z,100750.31
2022-10-23T09:14:52.320Z,100743.94
2022-10-23T09:17:28.418Z,100740.41
2022-10-23T09:20:10.811Z,100729.47
2022-10-23T09:22:37.279Z,100746.31
2022-10-23T09:25:09.043Z,100729.16
2022-10-23T09:27:35.506Z,100734.31
2022-10-23T09:30:02.076Z,100732.16
2022-10-23T09:32:38.350Z,100731.09
2022-10-23T09:35:05.917Z,100713.13
2022-10-23T09:37:35.914Z,100725.28
2022-10-23T09:40:05.300Z,100730.81
2022-10-23T09:42:31.705Z,100721.88
2022-10-23T09:44:58.100Z,100713.16
2022-10-23T09:47:25.973Z,100707.94
2022-10-23T09:49:57.197Z,100709.56
2022-10-23T09:52:43.880Z,100707.06
2022-10-23T09:55:23.241Z,100695.06
2022-10-23T09:57:50.158Z,100699.59
2022-10-23T10:00:25.393Z,100687.41
2022-10-23T10:03:03.792Z,100700.38
2022-10-23T10:05:31.763Z,100695.00
2022-10-23T10:08:27.641Z,100688.00
2022-10-23T10:11:00.668Z,100675.63
2022-10-23T10:13:33.049Z,100685.69
2022-10-23T10:16:32.526Z,100674.81
2022-10-23T10:19:20.806Z,100681.56
2022-10-23T10:22:08.794Z,100672.56
2022-10-23T10:24:46.563Z,100676.25
2022-10-23T10:27:39.124Z,100673.13
2022-10-23T10:30:18.346Z,100656.59
2022-10-23T10:33:15.365Z,100651.22
2022-10-23T10:36:19.628Z,100655.75
2022-10-23T10:38:51.545Z,100653.44
2022-10-23T10:41:42.785Z,100651.13
2022-10-23T10:44:33.350Z,100638.28
2022-10-23T10:47:29.958Z,100621.91
2022-10-23T10:50:08.615Z,100603.84
2022-10-23T10:52:49.234Z,100607.50
2022-10-23T10:55:37.737Z,100614.38
2022-10-23T10:58:21.193Z,100582.25
2022-10-23T11:00:52.702Z,100562.56
2022-10-23T11:03:41.171Z,100560.59
2022-10-23T11:06:15.898Z,100545.25
2022-10-23T11:08:56.330Z,100538.16
2022-10-23T11:11:32.887Z,100528.72
2022-10-23T11:13:59.469Z,100523.78
2022-10-23T11:16:30.133Z,100498.88
2022-10-23T11:19:17.676Z,100510.03
2022-10-23T11:21:46.612Z,100508.97
2022-10-23T11:24:31.287Z,100512.59
2022-10-23T11:27:07.044Z,100499.88
2022-10-23T11:29:59.136Z,100489.69
2022-10-23T11:32:59.700Z,100498.81
2022-10-23T11:35:32.099Z,100504.56
2022-10-23T11:38:16.147Z,100495.34
2022-10-23T11:40:52.277Z,100474.25
2022-10-23T11:43:35.518Z,100469.22
2022-10-23T11:46:29.473Z,100466.66
2022-10-23T11:48:57.234Z,100462.91
2022-10-23T11:51:35.768Z,100456.13
2022-10-23T11:54:11.443Z,100443.03
2022-10-23T11:56:39.321Z,100461.63
2022-10-23T11:59:29.586Z,100442.53
2022-10-23T12:02:00.674Z,100437.16
2022-10-23T12:04:38.493Z,100444.72
2022-10-23T12:07:17.699Z,100446.13
2022-10-23T12:09:46.901Z,100447.47
2022-10-23T12:12:27.281Z,100443.97
2022-10-23T12:14:54.233Z,100434.59
2022-10-23T12:17:23.457Z,100440.31
2022-10-23T12:19:53.802Z,100414.00
2022-10-23T12:22:24.633Z,100425.22
2022-10-23T12:25:04.027Z,100417.69
2022-10-23T12:27:58.378Z,100420.38
2022-10-23T12:30:32.919Z,100415.81
2022-10-23T12:33:31.668Z,100407.94
2022-10-23T12:36:01.067Z,100403.94
2022-10-23T12:38:33.817Z,100403.84
2022-10-23T12:41:13.213Z,100402.53
2022-10-23T12:43:42.370Z,100407.66
2022-10-23T12:46:17.626Z,100408.91
2022-10-23T12:48:49.544Z,100394.97
2022-10-23T12:51:36.263Z,100390.16
2022-10-23T12:54:03.677Z,100388.50
2022-10-23T12:56:36.784Z,100379.19
2022-10-23T12:59:05.361Z,100369.63
2022-10-23T13:01:33.860Z,100358.13
2022-10-23T13:04:23.788Z,100356.75
2022-10-23T13:06:51.920Z,100352.66
2022-10-23T13:09:40.813Z,100340.97
2022-10-23T13:12:14.704Z,100329.47
2022-10-23T13:14:44.602Z,100336.97
2022-10-23T13:17:11.981Z,100322.31
2022-10-23T13:19:38.468Z,100313.34
2022-10-23T13:22:16.994Z,100303.63
2022-10-23T13:24:43.838Z,100297.22
2022-10-23T13:27:33.983Z,100296.78
2022-10-23T13:30:00.749Z,100287.25
2022-10-23T13:32:30.204Z,100285.69
2022-10-23T13:35:20.863Z,100289.00
2022-10-23T13:37:48.505Z,100282.66
2022-10-23T13:40:27.808Z,100276.72
2022-10-23T13:42:55.940Z,100272.50
2022-10-23T13:45:25.990Z,100277.72
2022-10-23T13:47:52.864Z,100268.81
2022-10-23T13:50:20.171Z,100279.38
2022-10-23T13:52:46.828Z,100273.13
2022-10-23T13:55:19.316Z,100268.13
2022-10-23T13:57:46.880Z,100257.94
2022-10-23T14:00:15.071Z,100257.44
2022-10-23T14:02:42.098Z,100247.16
2022-10-23T14:05:09.675Z,100257.63
2022-10-23T14:07:36.263Z,100244.59
2022-10-23T14:10:03.759Z,100248.59
2022-10-23T14:12:30.149Z,100248.66
2022-10-23T14:14:56.609Z,100249.34
2022-10-23T14:17:23.165Z,100253.81
2022-10-23T14:19:50.180Z,100244.22
2022-10-23T14:22:17.985Z,100241.81
2022-10-23T14:24:44.480Z,100246.41
2022-10-23T14:27:12.238Z,100234.09
2022-10-23T14:29:40.563Z,100235.31
2022-10-23T14:32:07.028Z,100236.28
2022-10-23T14:34:33.623Z,100232.72
2022-10-23T14:37:15.165Z,100239.06
2022-10-23T14:39:44.204Z,100226.19
2022-10-23T14:42:14.879Z,100218.72
2022-10-23T14:44:41.240Z,100228.47
2022-10-23T14:47:07.614Z,100225.13
2022-10-23T14:49:35.611Z,100208.63
2022-10-23T14:52:02.102Z,100207.34
2022-10-23T14:54:29.367Z,100205.47
2022-10-23T14:56:55.771Z,100190.50
2022-10-23T14:59:22.131Z,100181.84
2022-10-23T15:01:49.688Z,100189.56
2022-10-23T15:04:16.265Z,100184.53
2022-10-23T15:06:43.902Z,100182.91
2022-10-23T15:09:10.480Z,100180.72
2022-10-23T15:11:36.993Z,100183.03
2022-10-23T15:14:03.426Z,100180.81
2022-10-23T15:16:30.220Z,100173.56
2022-10-23T15:18:56.577Z,100172.22
2022-10-23T15:21:23.178Z,100164.56
2022-10-23T15:23:49.681Z,100159.53
2022-10-23T15:26:23.713Z,100152.25
2022-10-23T15:28:55.696Z,100153.06
2022-10-23T15:31:43.340Z,100150.59
2022-10-23T15:34:12.403Z,100143.59
2022-10-23T15:36:38.929Z,100154.94
2022-10-23T15:39:10.247Z,100160.09
2022-10-23T15:41:38.524Z,100152.66
2022-10-23T15:44:06.357Z,100155.22
2022-10-23T15:46:33.039Z,100153.41
2022-10-23T15:48:59.640Z,100152.78
2022-10-23T15:51:26.127Z,100147.44
2022-10-23T15:53:52.599Z,100152.03
2022-10-23T15:56:19.040Z,100160.13
2022-10-23T15:58:45.766Z,100155.28
2022-10-23T16:01:12.541Z,100147.13
2022-10-23T16:03:39.266Z,100142.50
2022-10-23T16:06:11.390Z,100096.03
2022-10-23T16:08:38.344Z,100119.19
2022-10-23T16:11:13.871Z,100128.88
2022-10-23T16:13:40.233Z,100126.94
2022-10-23T16:16:08.221Z,100122.53
2022-10-23T16:18:34.606Z,100118.28
2022-10-23T16:21:01.010Z,100125.25
2022-10-23T16:23:28.326Z,100125.56
2022-10-23T16:25:55.393Z,100124.25
2022-10-23T16:28:21.847Z,100121.94
2022-10-23T16:30:48.202Z,100104.75
2022-10-23T16:33:14.697Z,100113.91
2022-10-23T16:35:41.119Z,100110.66
2022-10-23T16:38:07.580Z,100107.31
2022-10-23T16:40:34.045Z,100104.69
2022-10-23T16:43:00.501Z,100099.31
2022-10-23T16:45:26.925Z,100092.47
2022-10-23T16:47:53.305Z,100096.53
2022-10-23T16:50:19.760Z,100105.13
2022-10-23T16:52:46.948Z,100097.63
2022-10-23T16:55:14.865Z,100097.31
2022-10-23T16:57:42.534Z,100081.19
2022-10-23T17:00:09.307Z,100081.44
2022-10-23T17:02:37.041Z,100079.28
2022-10-23T17:05:03.827Z,100078.50
2022-10-23T17:07:30.583Z,100081.50
2022-10-23T17:09:57.022Z,100082.50
2022-10-23T17:12:23.744Z,100069.78
2022-10-23T17:14:50.143Z,100078.69
2022-10-23T17:17:16.818Z,100057.56
2022-10-23T17:19:46.247Z,100060.56
2022-10-23T17:22:14.049Z,100076.22
2022-10-23T17:24:41.390Z,100067.66
2022-10-23T17:27:08.274Z,100077.63
2022-10-23T17:29:34.797Z,100080.00
2022-10-23T17:32:01.390Z,100080.00
2022-10-23T17:34:27.783Z,100092.22
2022-10-23T17:36:55.501Z,100087.56
2022-10-23T17:39:24.786Z,100099.44
2022-10-23T17:41:51.657Z,100098.03
2022-10-23T17:44:18.203Z,100084.81
2022-10-23T17:46:44.752Z,100080.50
2022-10-23T17:49:11.903Z,100072.72
2022-10-23T17:51:39.085Z,100059.81
2022-10-23T17:54:08.606Z,100067.16
2022-10-23T17:56:38.285Z,100056.63
2022-10-23T17:59:08.836Z,100060.06
2022-10-23T18:01:35.532Z,100063.81
2022-10-23T18:04:03.934Z,100069.34
2022-10-23T18:06:34.009Z,100064.75
2022-10-23T18:09:01.531Z,100067.41
2022-10-23T18:11:32.149Z,100048.47
2022-10-23T18:16:27.373Z,100045.31
2022-10-23T18:18:54.335Z,100051.38
2022-10-23T18:21:24.789Z,100049.38
2022-10-23T18:23:51.509Z,100041.28
2022-10-23T18:26:21.257Z,100036.78
2022-10-23T18:28:49.498Z,100073.84
2022-10-23T18:31:18.361Z,100080.38
2022-10-23T18:33:44.991Z,100129.47
2022-10-23T18:36:22.635Z,100127.44
2022-10-23T18:38:49.940Z,100139.47
2022-10-23T18:41:17.447Z,100115.78
2022-10-23T18:43:44.697Z,100107.97
2022-10-23T18:46:13.300Z,100091.53
2022-10-23T18:48:40.831Z,100097.59
2022-10-23T18:51:22.213Z,100115.22
2022-10-23T18:53:49.260Z,100146.81
2022-10-23T18:56:21.805Z,100170.75
2022-10-23T18:58:56.365Z,100155.16
2022-10-23T19:01:23.964Z,100211.97
2022-10-23T19:03:51.242Z,100236.84
2022-10-23T19:06:18.456Z,100249.25
2022-10-23T19:08:52.770Z,100241.75
2022-10-23T19:11:21.374Z,100256.59
2022-10-23T19:13:47.896Z,100232.03
2022-10-23T19:16:49.705Z,100213.44
2022-10-23T19:19:20.987Z,100202.56
2022-10-23T19:21:49.040Z,100162.34
2022-10-23T19:24:20.385Z,100087.84
2022-10-23T19:26:47.536Z,100102.78
2022-10-23T19:29:18.319Z,100096.81
2022-10-23T19:31:49.220Z,100082.25
2022-10-23T19:34:19.946Z,100080.47
2022-10-23T19:36:47.957Z,100084.25
2022-10-23T19:39:14.535Z,100089.28
2022-10-23T19:41:41.077Z,100092.47
2022-10-23T19:44:07.471Z,100114.72
2022-10-23T19:46:37.760Z,100117.34
2022-10-23T19:49:05.081Z,100120.53
2022-10-23T19:51:32.214Z,100135.19
2022-10-23T19:53:58.935Z,100131.84
2022-10-23T19:56:25.466Z,100131.50
2022-10-23T19:58:52.583Z,100150.34
2022-10-23T20:01:22.310Z,100120.63
2022-10-23T20:03:51.061Z,100152.16
2022-10-23T20:06:21.104Z,100157.47
2022-10-23T20:08:48.207Z,100161.41
2022-10-23T20:11:20.263Z,100165.19
2022-10-23T20:13:48.683Z,100161.09
2022-10-23T20:16:24.016Z,100150.03
2022-10-23T20:18:51.081Z,100153.34
2022-10-23T20:21:18.174Z,100162.81
2022-10-23T20:23:45.349Z,100131.66
2022-10-23T20:26:15.974Z,100169.72
2022-10-23T20:28:46.858Z,100172.56
2022-10-23T20:31:15.569Z,100171.72
2022-10-23T20:33:42.518Z,100170.31
2022-10-23T20:36:20.432Z,100138.06
2022-10-23T20:38:46.922Z,100164.09
2022-10-23T20:41:13.309Z,100155.94
2022-10-23T20:43:39.793Z,100165.41
2022-10-23T20:46:08.689Z,100161.78
2022-10-23T20:48:40.067Z,100167.72
2022-10-23T20:51:09.683Z,100182.47
2022-10-23T20:53:37.341Z,100176.72
2022-10-23T20:56:13.783Z,100173.09
2022-10-23T20:58:40.534Z,100178.47
2022-10-23T21:01:11.352Z,100168.91
2022-10-23T21:03:38.540Z,100172.75
2022-10-23T21:06:07.085Z,100169.13
2022-10-23T21:08:34.082Z,100169.94
2022-10-23T21:11:00.908Z,100155.81
2022-10-23T21:13:28.653Z,100159.91
2022-10-23T21:15:55.579Z,100165.06
2022-10-23T21:18:44.803Z,100170.66
2022-10-23T21:21:12.576Z,100149.53
2022-10-23T21:23:39.442Z,100157.94
2022-10-23T21:26:07.612Z,100131.41
2022-10-23T21:28:34.659Z,100159.81
2022-10-23T21:31:09.151Z,100160.16
2022-10-23T21:33:37.083Z,100148.94
2022-10-23T21:36:18.994Z,100160.94
2022-10-23T21:38:47.756Z,100154.78
2022-10-23T21:41:16.450Z,100149.53
2022-10-23T21:43:42.843Z,100148.69
2022-10-23T21:46:17.245Z,100146.84
2022-10-23T21:48:44.486Z,100144.38
2022-10-23T21:51:23.181Z,100135.28
2022-10-23T21:53:51.383Z,100143.31
2022-10-23T21:56:32.110Z,100142.25
2022-10-23T21:59:00.545Z,100115.06
2022-10-23T22:01:28.067Z,100143.19
2022-10-23T22:03:55.443Z,100129.91
2022-10-23T22:06:27.882Z,100130.25
2022-10-23T22:08:55.765Z,100128.03
2022-10-23T22:11:22.848Z,100129.53
2022-10-23T22:13:49.575Z,100144.38
2022-10-23T22:16:16.783Z,100144.03
2022-10-23T22:18:44.090Z,100149.41
2022-10-23T22:21:14.127Z,100147.31
2022-10-23T22:23:40.980Z,100144.94
2022-10-23T22:26:10.425Z,100147.63
2022-10-23T22:28:36.872Z,100139.81
2022-10-23T22:31:03.366Z,100134.44
2022-10-23T22:33:31.381Z,100137.47
2022-10-23T22:36:02.739Z,100134.13
2022-10-23T22:38:31.698Z,100123.69
2022-10-23T22:41:04.097Z,100134.78
2022-10-23T22:43:31.059Z,100126.03
2022-10-23T22:46:05.895Z,100108.06
2022-10-23T22:48:32.325Z,100122.03
2022-10-23T22:50:58.733Z,100115.97
2022-10-23T22:53:25.498Z,100111.97
2022-10-23T22:55:52.998Z,100117.94
2022-10-23T22:58:19.434Z,100117.47
2022-10-23T23:00:46.494Z,100117.47
2022-10-23T23:03:13.003Z,100105.34
2022-10-23T23:05:46.823Z,100105.56
2022-10-23T23:08:15.134Z,100095.28
2022-10-23T23:10:41.585Z,100092.13
2022-10-23T23:13:08.122Z,100088.28
2022-10-23T23:15:39.274Z,100086.56
2022-10-23T23:18:05.664Z,100085.97
2022-10-23T23:20:32.254Z,100090.28
2022-10-23T23:22:58.702Z,100086.31
2022-10-23T23:25:25.115Z,100083.53
2022-10-23T23:27:51.574Z,100095.66
2022-10-23T23:30:18.125Z,100085.25
2022-10-23T23:32:47.689Z,100059.25
2022-10-23T23:35:14.557Z,100089.69
2022-10-23T23:37:40.955Z,100088.63
2022-10-23T23:40:07.985Z,100085.34
2022-10-23T23:42:34.379Z,100085.34
2022-10-23T23:45:13.595Z,100075.56
2022-10-23T23:47:41.134Z,100076.59
2022-10-23T23:50:08.893Z,100075.69
2022-10-23T23:52:35.572Z,100058.88
2022-10-23T23:55:01.925Z,100056.41
2022-10-23T23:57:28.395Z,100059.00
2022-10-23T23:59:54.820Z,100051.06
